Time;durP1;ratioP1;P1;durP2;ratioP2;P2;SDS_P1;SDS_P2;PMS_P1;PMS_P2;Temp;Humidity;BMP_temperature;BMP_pressure;BME280_temperature;BME280_humidity;BME280_pressure;Samples;Min_cycle;Max_cycle;Signal;HPM_P1;HPM_P2
2023/04/06 00:02:17;;;;;;;1.20;0.80;;;13.40;99.90;;;;;;4995798;28;20243;-93
2023/04/06 00:04:49;;;;;;;1.43;0.80;;;13.50;99.90;;;;;;4995353;28;20229;-92
2023/04/06 00:07:20;;;;;;;0.97;0.70;;;13.40;99.90;;;;;;4996802;28;20218;-93
2023/04/06 00:09:51;;;;;;;1.90;0.87;;;13.20;99.90;;;;;;5002417;28;20203;-93
2023/04/06 00:12:22;;;;;;;2.20;0.80;;;13.20;99.90;;;;;;5002444;28;20215;-93
2023/04/06 00:14:55;;;;;;;0.80;0.80;;;13.20;99.90;;;;;;5006781;28;20686;-94
2023/04/06 00:17:30;;;;;;;1.50;0.70;;;13.10;99.90;;;;;;5009152;28;20222;-93
2023/04/06 00:20:01;;;;;;;1.10;0.77;;;13.30;99.90;;;;;;5001887;28;20266;-92
2023/04/06 00:22:33;;;;;;;2.63;0.80;;;13.50;99.90;;;;;;5007385;28;20218;-93
2023/04/06 00:25:03;;;;;;;0.80;0.70;;;13.20;99.90;;;;;;5002234;28;20659;-93
2023/04/06 00:27:35;;;;;;;1.57;0.97;;;13.40;99.90;;;;;;5003548;28;20278;-91
2023/04/06 00:30:09;;;;;;;1.37;0.77;;;13.20;99.90;;;;;;4987894;28;20214;-94
2023/04/06 00:32:40;;;;;;;2.07;0.70;;;13.10;99.90;;;;;;4985180;28;20217;-94
2023/04/06 00:35:11;;;;;;;0.80;0.80;;;12.90;99.90;;;;;;4990301;28;20231;-95
2023/04/06 00:37:42;;;;;;;2.10;1.00;;;12.90;99.90;;;;;;4999905;28;20214;-94
2023/04/06 00:40:13;;;;;;;0.77;0.60;;;12.90;99.90;;;;;;5000829;28;20201;-94
2023/04/06 00:42:44;;;;;;;0.80;0.80;;;12.80;99.90;;;;;;5001002;28;20242;-95
2023/04/06 00:45:17;;;;;;;1.90;0.70;;;12.40;99.90;;;;;;5000641;28;20211;-94
2023/04/06 00:47:48;;;;;;;1.07;0.90;;;12.20;99.90;;;;;;4999604;28;20243;-95
2023/04/06 00:50:20;;;;;;;1.93;0.70;;;12.00;99.90;;;;;;5016083;28;20202;-94
2023/04/06 00:52:52;;;;;;;0.97;0.70;;;11.90;99.90;;;;;;5006898;28;20249;-94
2023/04/06 00:55:23;;;;;;;1.60;0.80;;;11.90;99.90;;;;;;5012031;28;20234;-94
2023/04/06 00:57:54;;;;;;;1.40;0.87;;;11.90;99.90;;;;;;5001604;28;20268;-94
2023/04/06 01:00:27;;;;;;;1.03;0.90;;;11.90;99.90;;;;;;4983627;28;20207;-94
2023/04/06 01:02:58;;;;;;;3.10;1.67;;;11.80;99.90;;;;;;4983269;28;20207;-94
2023/04/06 01:05:30;;;;;;;3.30;1.43;;;11.60;99.90;;;;;;4998479;28;20277;-94
2023/04/06 01:08:01;;;;;;;1.43;1.00;;;11.60;99.90;;;;;;4996779;28;20202;-94
2023/04/06 01:10:32;;;;;;;2.83;1.00;;;11.50;99.90;;;;;;4997495;28;20210;-92
2023/04/06 01:13:03;;;;;;;1.30;0.80;;;11.40;99.90;;;;;;4997048;28;20257;-93
2023/04/06 01:15:38;;;;;;;1.63;0.83;;;11.50;99.90;;;;;;4997468;28;20577;-91
2023/04/06 01:18:10;;;;;;;2.57;0.90;;;11.60;99.90;;;;;;4996185;28;20300;-92
2023/04/06 01:20:41;;;;;;;2.67;0.77;;;11.60;99.90;;;;;;4996179;28;20206;-93
2023/04/06 01:23:14;;;;;;;1.13;0.70;;;11.60;99.90;;;;;;4995744;28;20207;-91
2023/04/06 01:25:46;;;;;;;1.40;0.90;;;11.60;99.90;;;;;;4977427;28;20269;-93
2023/04/06 01:28:17;;;;;;;1.77;1.20;;;11.60;99.90;;;;;;4999765;28;20249;-93
2023/04/06 01:30:47;;;;;;;1.50;0.90;;;11.50;99.90;;;;;;5004646;28;20659;-93
2023/04/06 01:33:19;;;;;;;1.77;0.80;;;11.40;99.90;;;;;;4994414;28;20203;-94
2023/04/06 01:35:50;;;;;;;2.30;1.10;;;11.40;99.90;;;;;;5000903;28;20233;-95
2023/04/06 01:38:23;;;;;;;1.40;0.97;;;11.30;99.90;;;;;;4999906;28;20607;-95
2023/04/06 01:40:55;;;;;;;1.47;1.30;;;11.10;99.90;;;;;;4995361;28;20224;-85
2023/04/06 01:43:26;;;;;;;1.83;1.20;;;11.00;99.90;;;;;;4987304;28;20211;-93
2023/04/06 01:45:57;;;;;;;3.03;1.10;;;11.00;99.90;;;;;;4990440;28;20258;-94
2023/04/06 01:48:28;;;;;;;1.53;0.80;;;10.90;99.90;;;;;;4986897;28;20209;-93
2023/04/06 01:51:01;;;;;;;1.73;0.97;;;10.80;99.90;;;;;;5001284;28;20256;-93
2023/04/06 01:53:34;;;;;;;2.77;0.93;;;10.80;99.90;;;;;;4989717;28;20219;-93
2023/04/06 01:56:05;;;;;;;2.73;1.50;;;10.80;99.90;;;;;;4992067;28;20234;-94
2023/04/06 01:58:37;;;;;;;7.07;1.20;;;10.70;99.90;;;;;;4995690;28;20198;-95
2023/04/06 02:01:08;;;;;;;3.50;1.77;;;10.80;99.90;;;;;;4995494;28;20218;-95
2023/04/06 02:03:39;;;;;;;4.43;2.77;;;10.70;99.90;;;;;;4993122;28;20210;-87
2023/04/06 02:06:10;;;;;;;3.80;2.33;;;10.80;99.90;;;;;;4981762;28;20218;-90
2023/04/06 02:08:45;;;;;;;4.63;1.20;;;10.70;99.90;;;;;;4990400;28;20257;-89
2023/04/06 02:11:17;;;;;;;2.20;0.90;;;10.70;99.90;;;;;;5000220;28;20224;-89
2023/04/06 02:13:48;;;;;;;1.60;0.90;;;10.70;99.90;;;;;;4985953;28;20215;-89
2023/04/06 02:16:20;;;;;;;1.90;1.30;;;10.60;99.90;;;;;;4992557;28;20214;-89
2023/04/06 02:18:52;;;;;;;1.77;1.00;;;10.50;99.90;;;;;;4980590;28;20206;-89
2023/04/06 02:21:24;;;;;;;1.97;0.90;;;10.50;99.90;;;;;;4993695;28;20217;-90
2023/04/06 02:23:57;;;;;;;1.70;1.13;;;10.30;99.90;;;;;;4994171;28;20265;-89
2023/04/06 02:26:28;;;;;;;1.10;0.80;;;10.30;99.90;;;;;;4981059;28;20214;-89
2023/04/06 02:28:59;;;;;;;1.90;1.00;;;10.30;99.90;;;;;;5008881;28;20214;-89
2023/04/06 02:31:30;;;;;;;2.67;1.10;;;10.20;99.90;;;;;;4990677;28;20613;-90
2023/04/06 02:34:02;;;;;;;2.17;1.20;;;10.20;99.90;;;;;;4995399;28;20202;-90
2023/04/06 02:36:34;;;;;;;1.20;0.93;;;10.20;99.90;;;;;;4992346;28;20227;-90
2023/04/06 02:39:07;;;;;;;1.93;1.07;;;10.10;99.90;;;;;;4977474;28;20214;-91
2023/04/06 02:41:39;;;;;;;3.07;1.23;;;10.10;99.90;;;;;;4997335;28;20238;-90
2023/04/06 02:44:11;;;;;;;2.73;1.30;;;10.00;99.90;;;;;;5007659;28;20230;-91
2023/04/06 02:46:43;;;;;;;3.50;1.30;;;10.00;99.90;;;;;;5010149;28;20187;-91
2023/04/06 02:49:15;;;;;;;2.43;0.87;;;9.90;99.90;;;;;;4999154;28;20233;-90
2023/04/06 02:51:47;;;;;;;1.90;0.90;;;9.90;99.90;;;;;;4996471;28;20207;-90
2023/04/06 02:54:21;;;;;;;1.90;1.10;;;9.80;99.90;;;;;;4985585;28;20611;-89
2023/04/06 02:56:53;;;;;;;2.10;0.97;;;9.80;99.90;;;;;;4996229;28;20725;-91
2023/04/06 02:59:25;;;;;;;3.13;1.20;;;9.70;99.90;;;;;;4996496;28;20203;-90
2023/04/06 03:01:57;;;;;;;3.27;1.20;;;9.70;99.90;;;;;;4982555;28;20209;-90
2023/04/06 03:04:29;;;;;;;3.00;1.13;;;9.60;99.90;;;;;;4994532;28;20203;-91
2023/04/06 03:07:00;;;;;;;1.57;1.00;;;9.60;99.90;;;;;;4975558;28;20203;-91
2023/04/06 03:09:34;;;;;;;1.57;0.83;;;9.60;99.90;;;;;;4987779;28;20211;-90
2023/04/06 03:12:06;;;;;;;1.93;0.80;;;9.60;99.90;;;;;;4985165;28;20269;-89
2023/04/06 03:14:41;;;;;;;2.50;0.80;;;9.60;99.90;;;;;;4977553;28;20209;-89
2023/04/06 03:17:13;;;;;;;0.80;0.80;;;9.60;99.90;;;;;;4991859;28;20202;-89
2023/04/06 03:19:44;;;;;;;1.17;0.87;;;9.50;99.90;;;;;;4993849;28;20560;-89
2023/04/06 03:22:18;;;;;;;1.80;0.83;;;9.50;99.90;;;;;;4995775;28;20276;-91
2023/04/06 03:24:51;;;;;;;1.00;0.87;;;9.50;99.90;;;;;;4976420;28;20207;-89
2023/04/06 03:27:23;;;;;;;2.30;0.73;;;9.50;99.90;;;;;;4987502;28;20504;-92
2023/04/06 03:29:55;;;;;;;2.43;0.70;;;9.50;99.90;;;;;;4993126;28;20206;-89
2023/04/06 03:32:27;;;;;;;1.73;0.90;;;9.40;99.90;;;;;;5011027;28;20214;-89
2023/04/06 03:34:58;;;;;;;1.90;0.70;;;9.40;99.90;;;;;;5008799;28;20215;-90
2023/04/06 03:37:30;;;;;;;2.20;0.90;;;9.40;99.90;;;;;;4993051;28;20210;-88
2023/04/06 03:40:04;;;;;;;2.00;1.00;;;9.40;99.90;;;;;;4983981;28;20474;-89
2023/04/06 03:42:35;;;;;;;2.97;1.00;;;9.30;99.90;;;;;;4993425;28;20210;-88
2023/04/06 03:45:08;;;;;;;2.47;1.17;;;9.30;99.90;;;;;;4991768;28;20259;-89
2023/04/06 03:47:39;;;;;;;1.63;1.10;;;9.30;99.90;;;;;;4976535;28;20199;-89
2023/04/06 03:50:11;;;;;;;1.80;0.97;;;9.40;99.90;;;;;;4988560;28;20652;-89
2023/04/06 03:52:42;;;;;;;1.73;1.17;;;9.40;99.90;;;;;;4985976;28;20662;-90
2023/04/06 03:55:16;;;;;;;0.93;0.77;;;9.30;99.90;;;;;;4997105;28;20234;-90
2023/04/06 03:57:48;;;;;;;2.50;1.10;;;9.30;99.90;;;;;;4998785;28;20214;-90
2023/04/06 04:00:20;;;;;;;1.43;0.97;;;9.30;99.90;;;;;;4988991;28;20203;-90
2023/04/06 04:02:51;;;;;;;3.37;0.87;;;9.30;99.90;;;;;;4990164;28;20213;-91
2023/04/06 04:05:24;;;;;;;1.30;1.10;;;9.20;99.90;;;;;;4995386;28;20245;-91
2023/04/06 04:07:56;;;;;;;1.33;0.87;;;9.20;99.90;;;;;;4996644;28;20207;-91
2023/04/06 04:10:30;;;;;;;1.30;0.97;;;9.30;99.90;;;;;;4995803;28;20206;-90
2023/04/06 04:13:01;;;;;;;1.23;0.93;;;9.30;99.90;;;;;;4996862;28;20217;-90
2023/04/06 04:15:33;;;;;;;2.80;0.87;;;9.30;99.90;;;;;;4985100;28;20270;-90
2023/04/06 04:18:04;;;;;;;0.90;0.90;;;9.20;99.90;;;;;;4996494;28;20214;-89
2023/04/06 04:20:36;;;;;;;1.13;0.90;;;9.10;99.90;;;;;;4982679;28;20253;-90
2023/04/06 04:23:07;;;;;;;2.40;0.90;;;9.00;99.90;;;;;;4996357;28;20276;-89
2023/04/06 04:25:41;;;;;;;1.10;0.83;;;9.00;99.90;;;;;;4981533;28;20310;-90
2023/04/06 04:28:12;;;;;;;2.37;1.23;;;9.00;99.90;;;;;;4999653;28;20270;-90
2023/04/06 04:30:44;;;;;;;1.30;0.70;;;8.90;99.90;;;;;;4997440;28;20251;-89
2023/04/06 04:33:17;;;;;;;1.07;0.80;;;8.90;99.90;;;;;;4988298;28;20203;-89
2023/04/06 04:35:49;;;;;;;1.57;1.00;;;8.90;99.90;;;;;;5002176;28;20232;-89
2023/04/06 04:38:21;;;;;;;1.20;0.90;;;8.90;99.90;;;;;;4987851;28;20217;-90
2023/04/06 04:40:55;;;;;;;1.67;1.03;;;8.90;99.90;;;;;;5000023;28;20211;-88
2023/04/06 04:43:26;;;;;;;4.13;1.10;;;8.80;99.90;;;;;;5000778;28;20206;-89
2023/04/06 04:46:01;;;;;;;0.97;0.77;;;8.80;99.90;;;;;;4998692;28;20253;-89
2023/04/06 04:48:33;;;;;;;2.70;1.23;;;8.70;99.90;;;;;;4989070;28;20210;-90
2023/04/06 04:51:06;;;;;;;1.50;0.93;;;8.60;99.90;;;;;;5016951;28;20202;-90
2023/04/06 04:53:37;;;;;;;2.27;1.00;;;8.60;99.90;;;;;;5009920;28;20210;-90
2023/04/06 04:56:11;;;;;;;3.10;1.07;;;8.60;99.90;;;;;;5011168;28;20238;-90
2023/04/06 04:58:42;;;;;;;2.73;1.07;;;8.50;99.90;;;;;;4986784;28;20643;-89
2023/04/06 05:01:14;;;;;;;1.40;1.10;;;8.40;99.90;;;;;;5000683;28;20210;-89
2023/04/06 05:03:45;;;;;;;2.73;1.10;;;8.30;99.90;;;;;;4999859;28;20202;-90
2023/04/06 05:06:16;;;;;;;3.83;0.90;;;8.30;99.90;;;;;;4994820;28;20726;-89
2023/04/06 05:08:47;;;;;;;1.93;0.80;;;8.30;99.90;;;;;;4989681;28;20302;-90
2023/04/06 05:11:21;;;;;;;1.30;0.80;;;8.30;99.90;;;;;;4996521;28;20212;-90
2023/04/06 05:13:52;;;;;;;1.30;1.00;;;8.20;99.90;;;;;;4998338;28;20238;-90
2023/04/06 05:16:24;;;;;;;1.63;0.80;;;8.20;99.90;;;;;;4990233;28;20317;-91
2023/04/06 05:18:56;;;;;;;2.23;1.10;;;8.20;99.90;;;;;;4997267;28;20694;-90
2023/04/06 05:21:28;;;;;;;1.93;1.03;;;8.20;99.90;;;;;;4993653;28;20211;-91
2023/04/06 05:24:02;;;;;;;4.13;1.30;;;8.20;99.90;;;;;;4996346;28;20285;-88
2023/04/06 05:26:35;;;;;;;2.27;1.07;;;8.10;99.90;;;;;;4985303;28;20313;-90
2023/04/06 05:29:08;;;;;;;2.13;1.00;;;8.00;99.90;;;;;;4984680;28;20241;-89
2023/04/06 05:31:39;;;;;;;2.73;0.90;;;8.00;99.90;;;;;;4996178;28;20214;-88
2023/04/06 05:34:12;;;;;;;1.33;0.80;;;7.90;99.90;;;;;;4979704;28;20301;-89
2023/04/06 05:36:43;;;;;;;2.70;1.00;;;7.90;99.90;;;;;;4997546;28;20256;-89
2023/04/06 05:39:15;;;;;;;1.83;1.07;;;7.90;99.90;;;;;;4986539;28;20235;-88
2023/04/06 05:41:50;;;;;;;1.70;0.90;;;7.80;99.90;;;;;;4979458;28;20238;-85
2023/04/06 05:44:23;;;;;;;1.27;0.90;;;7.80;99.90;;;;;;4996755;28;20202;-89
2023/04/06 05:46:54;;;;;;;1.53;1.00;;;7.70;99.90;;;;;;4994553;28;20674;-89
2023/04/06 05:49:25;;;;;;;1.90;1.00;;;7.70;99.90;;;;;;5010468;28;20203;-89
2023/04/06 05:51:58;;;;;;;1.77;1.17;;;7.70;99.90;;;;;;5000891;28;20819;-88
2023/04/06 05:54:29;;;;;;;5.00;1.40;;;7.70;99.90;;;;;;5003901;28;20747;-88
2023/04/06 05:57:04;;;;;;;1.50;1.13;;;7.70;99.90;;;;;;4997427;28;20225;-89
2023/04/06 05:59:36;;;;;;;2.23;1.13;;;7.70;99.90;;;;;;5016862;28;20209;-89
2023/04/06 06:02:07;;;;;;;3.07;1.47;;;7.70;99.90;;;;;;4999917;28;20211;-89
2023/04/06 06:04:39;;;;;;;3.40;1.33;;;7.70;99.90;;;;;;4998691;28;20326;-90
2023/04/06 06:07:11;;;;;;;1.47;1.37;;;7.70;99.90;;;;;;4998788;28;20292;-87
2023/04/06 06:09:42;;;;;;;1.80;1.30;;;7.60;99.90;;;;;;4987545;28;20230;-90
2023/04/06 06:12:16;;;;;;;2.00;1.50;;;7.70;99.90;;;;;;4998041;28;20202;-89
2023/04/06 06:14:48;;;;;;;3.30;1.27;;;7.70;99.90;;;;;;5006061;28;20212;-89
2023/04/06 06:17:20;;;;;;;2.53;1.40;;;7.70;99.90;;;;;;5016277;28;20257;-90
2023/04/06 06:19:51;;;;;;;1.70;1.40;;;7.70;99.90;;;;;;5017604;28;20186;-88
2023/04/06 06:22:23;;;;;;;1.77;1.20;;;7.70;99.90;;;;;;5013825;28;20242;-89
2023/04/06 06:24:54;;;;;;;1.87;1.20;;;7.60;99.90;;;;;;5007300;28;20210;-89
2023/04/06 06:27:28;;;;;;;1.70;1.10;;;7.60;99.90;;;;;;5005276;28;20214;-88
2023/04/06 06:30:00;;;;;;;3.73;1.10;;;7.70;99.90;;;;;;5002036;28;20202;-89
2023/04/06 06:32:31;;;;;;;1.67;1.17;;;7.70;99.90;;;;;;4996122;28;20690;-88
2023/04/06 06:35:04;;;;;;;1.10;0.90;;;7.70;99.90;;;;;;4996661;28;20206;-89
2023/04/06 06:37:35;;;;;;;1.57;0.83;;;7.70;99.90;;;;;;4995410;28;20289;-90
2023/04/06 06:40:07;;;;;;;3.27;0.87;;;7.70;99.90;;;;;;4997472;28;20222;-89
2023/04/06 06:42:42;;;;;;;3.63;1.20;;;7.70;99.90;;;;;;4983033;28;20207;-89
2023/04/06 06:45:13;;;;;;;1.60;0.80;;;7.70;99.90;;;;;;4977708;28;20234;-89
2023/04/06 06:47:46;;;;;;;1.17;0.90;;;7.70;99.90;;;;;;4976779;28;20221;-89
2023/04/06 06:50:17;;;;;;;1.23;1.10;;;7.70;99.90;;;;;;4977570;28;20755;-88
2023/04/06 06:52:49;;;;;;;1.23;1.03;;;7.60;99.90;;;;;;4993082;28;20233;-88
2023/04/06 06:55:20;;;;;;;1.20;0.83;;;7.60;99.90;;;;;;5014557;28;20209;-89
2023/04/06 06:57:56;;;;;;;1.73;0.90;;;7.60;99.90;;;;;;5016950;28;20237;-89
2023/04/06 07:00:27;;;;;;;1.23;1.07;;;7.60;99.90;;;;;;5010247;28;20206;-90
2023/04/06 07:02:59;;;;;;;2.60;1.00;;;7.60;99.90;;;;;;4995165;28;20202;-89
2023/04/06 07:05:31;;;;;;;1.37;1.17;;;7.60;99.90;;;;;;4989021;28;20211;-89
2023/04/06 07:08:04;;;;;;;2.57;1.17;;;7.60;99.90;;;;;;4996380;28;20198;-90
2023/04/06 07:10:35;;;;;;;1.90;1.30;;;7.70;99.90;;;;;;4998607;28;20210;-90
2023/04/06 07:13:09;;;;;;;2.33;1.10;;;7.70;99.90;;;;;;4993705;28;20211;-88
2023/04/06 07:15:41;;;;;;;2.37;1.47;;;7.70;99.90;;;;;;4981516;28;20213;-89
2023/04/06 07:18:12;;;;;;;3.90;1.07;;;7.70;99.90;;;;;;4995597;28;20229;-90
2023/04/06 07:20:43;;;;;;;2.67;1.10;;;7.70;99.90;;;;;;4977380;28;20203;-90
2023/04/06 07:23:15;;;;;;;2.70;1.40;;;7.80;99.90;;;;;;4976938;28;20253;-90
2023/04/06 07:25:47;;;;;;;1.60;1.30;;;7.80;99.90;;;;;;4997447;28;20667;-90
2023/04/06 07:28:22;;;;;;;2.40;1.40;;;7.60;99.90;;;;;;5006151;28;20213;-90
2023/04/06 07:30:54;;;;;;;1.57;1.00;;;7.60;99.90;;;;;;4995009;28;20638;-89
2023/04/06 07:33:29;;;;;;;2.30;1.20;;;7.60;99.90;;;;;;5000557;28;20206;-88
2023/04/06 07:36:01;;;;;;;1.37;1.27;;;7.60;99.90;;;;;;5000235;28;20209;-88
2023/04/06 07:38:33;;;;;;;1.23;1.07;;;7.60;99.90;;;;;;4998838;28;20230;-88
2023/04/06 07:41:04;;;;;;;1.33;1.23;;;7.60;99.90;;;;;;4998727;28;20209;-89
2023/04/06 07:43:38;;;;;;;1.37;1.27;;;7.60;99.90;;;;;;4995129;28;20682;-88
2023/04/06 07:46:10;;;;;;;2.13;1.30;;;7.60;99.90;;;;;;4997361;28;20562;-89
2023/04/06 07:48:43;;;;;;;1.53;1.43;;;7.60;99.90;;;;;;4999104;28;20206;-89
2023/04/06 07:51:17;;;;;;;1.97;1.40;;;7.60;99.90;;;;;;4997666;28;20217;-88
2023/04/06 07:53:48;;;;;;;2.97;1.40;;;7.50;99.90;;;;;;4998871;28;20210;-89
2023/04/06 07:56:20;;;;;;;2.03;1.40;;;7.50;99.90;;;;;;4995724;28;20274;-88
2023/04/06 07:58:56;;;;;;;1.20;1.10;;;7.50;99.90;;;;;;4977212;28;20234;-89
2023/04/06 08:01:30;;;;;;;1.80;1.40;;;7.40;99.90;;;;;;4979081;28;20195;-88
2023/04/06 08:04:02;;;;;;;2.27;1.60;;;7.40;99.90;;;;;;4979509;28;20245;-89
2023/04/06 08:06:36;;;;;;;1.93;1.40;;;7.50;99.90;;;;;;4994895;28;20376;-89
2023/04/06 08:09:07;;;;;;;2.23;1.23;;;7.50;99.90;;;;;;4978305;28;20215;-89
2023/04/06 08:11:40;;;;;;;2.27;1.37;;;7.50;99.90;;;;;;4983310;28;20261;-89
2023/04/06 08:14:13;;;;;;;2.50;1.60;;;7.50;99.90;;;;;;4980763;28;20211;-89
2023/04/06 08:16:46;;;;;;;2.30;1.40;;;7.40;99.90;;;;;;4998179;28;20202;-90
2023/04/06 08:19:18;;;;;;;1.53;1.20;;;7.40;99.90;;;;;;4997524;28;20241;-89
2023/04/06 08:21:51;;;;;;;1.10;1.00;;;7.40;99.90;;;;;;4996997;28;20206;-89
2023/04/06 08:24:22;;;;;;;1.57;1.40;;;7.40;99.90;;;;;;4997322;28;20269;-89
2023/04/06 08:26:53;;;;;;;2.70;1.20;;;7.40;99.90;;;;;;4998084;28;20210;-90
2023/04/06 08:29:27;;;;;;;1.53;1.20;;;7.30;99.90;;;;;;4997096;28;20587;-90
2023/04/06 08:32:04;;;;;;;3.57;1.60;;;7.30;99.90;;;;;;4998331;28;20206;-90
2023/04/06 08:34:37;;;;;;;1.50;0.97;;;7.30;99.90;;;;;;4997353;28;20690;-90
2023/04/06 08:37:09;;;;;;;1.43;1.10;;;7.30;99.90;;;;;;4998332;28;20218;-90
2023/04/06 08:39:41;;;;;;;1.20;1.10;;;7.30;99.90;;;;;;4996801;28;20230;-89
2023/04/06 08:42:19;;;;;;;4.33;1.40;;;7.30;99.90;;;;;;4997888;28;20210;-89
2023/04/06 08:44:52;;;;;;;1.47;1.17;;;7.40;99.90;;;;;;4978125;28;20220;-89
2023/04/06 08:47:24;;;;;;;1.20;1.00;;;7.30;99.90;;;;;;4977123;28;20211;-88
2023/04/06 08:49:56;;;;;;;1.40;1.10;;;7.30;99.90;;;;;;4977916;28;20672;-89
2023/04/06 08:52:28;;;;;;;1.77;1.10;;;7.40;99.90;;;;;;4978309;28;20211;-88
2023/04/06 08:55:00;;;;;;;1.73;1.00;;;7.30;99.90;;;;;;4996370;28;20219;-87
2023/04/06 08:57:34;;;;;;;2.40;1.10;;;7.30;99.90;;;;;;4996778;28;20206;-89
2023/04/06 09:00:11;;;;;;;1.63;1.17;;;7.30;99.90;;;;;;5004995;28;20213;-87
2023/04/06 09:02:46;;;;;;;1.10;1.00;;;7.30;99.90;;;;;;5010060;28;20233;-89
2023/04/06 09:05:19;;;;;;;2.03;1.13;;;7.40;99.90;;;;;;5008309;28;20193;-89
2023/04/06 09:07:51;;;;;;;1.63;1.07;;;7.40;99.90;;;;;;5016094;28;20213;-88
2023/04/06 09:10:23;;;;;;;3.37;1.10;;;7.40;99.90;;;;;;5017071;28;20213;-90
2023/04/06 09:13:06;;;;;;;1.10;1.00;;;7.40;99.90;;;;;;5015473;28;20206;-90
2023/04/06 09:15:40;;;;;;;1.80;0.80;;;7.40;99.90;;;;;;4985384;28;20222;-90
2023/04/06 09:18:13;;;;;;;1.80;0.90;;;7.40;99.90;;;;;;4996402;28;20226;-89
2023/04/06 09:20:45;;;;;;;2.27;1.10;;;7.40;99.90;;;;;;4997550;28;20215;-90
2023/04/06 09:23:20;;;;;;;3.03;1.03;;;7.40;99.90;;;;;;4995948;28;20210;-89
2023/04/06 09:25:52;;;;;;;1.43;1.00;;;7.40;99.90;;;;;;4997091;28;20293;-89
2023/04/06 09:28:24;;;;;;;1.10;0.90;;;7.40;99.90;;;;;;4989245;28;20221;-89
2023/04/06 09:30:58;;;;;;;1.80;1.20;;;7.40;99.90;;;;;;4996856;28;20207;-89
2023/04/06 09:33:30;;;;;;;1.33;0.90;;;7.30;99.90;;;;;;4996971;28;20237;-89
2023/04/06 09:36:02;;;;;;;1.83;1.00;;;7.20;99.90;;;;;;4996677;28;20218;-90
2023/04/06 09:38:33;;;;;;;1.57;0.90;;;7.20;99.90;;;;;;4995433;28;20281;-89
2023/04/06 09:41:05;;;;;;;1.47;1.10;;;7.20;99.90;;;;;;4996603;28;20674;-89
2023/04/06 09:43:37;;;;;;;2.33;1.00;;;7.30;99.90;;;;;;4995020;28;20213;-88
2023/04/06 09:46:10;;;;;;;2.33;1.00;;;7.20;99.90;;;;;;4990204;28;20214;-89
2023/04/06 09:48:42;;;;;;;1.30;1.07;;;7.20;99.90;;;;;;4995828;28;20202;-88
2023/04/06 09:51:20;;;;;;;1.10;1.00;;;7.30;99.90;;;;;;4994902;28;20630;-88
2023/04/06 09:54:00;;;;;;;2.53;1.00;;;7.40;99.90;;;;;;4975737;28;20271;-88
2023/04/06 09:56:40;;;;;;;1.10;0.83;;;7.40;99.90;;;;;;4993580;28;20242;-89
2023/04/06 09:59:16;;;;;;;1.10;1.00;;;7.30;99.90;;;;;;4994998;28;20249;-89
2023/04/06 10:01:52;;;;;;;1.27;1.03;;;7.20;99.90;;;;;;4996054;28;20209;-88
2023/04/06 10:04:34;;;;;;;1.73;1.00;;;7.20;99.90;;;;;;4995660;28;20280;-88
2023/04/06 10:07:08;;;;;;;2.33;1.20;;;7.20;99.90;;;;;;4995958;28;20214;-88
2023/04/06 10:09:40;;;;;;;2.17;0.93;;;7.20;99.90;;;;;;4993984;28;20744;-88
2023/04/06 10:12:12;;;;;;;1.00;0.90;;;7.20;99.90;;;;;;4996180;28;20619;-89
2023/04/06 10:14:49;;;;;;;1.30;1.20;;;7.20;99.90;;;;;;4994252;28;20249;-90
2023/04/06 10:17:23;;;;;;;1.20;0.97;;;7.10;99.90;;;;;;4986950;28;20222;-89
2023/04/06 10:20:01;;;;;;;2.00;1.10;;;7.20;99.90;;;;;;4978656;28;20234;-89
2023/04/06 10:22:41;;;;;;;1.10;0.90;;;7.20;99.90;;;;;;5014760;28;20209;-89
2023/04/06 10:25:13;;;;;;;1.60;1.10;;;7.20;99.90;;;;;;5014446;28;20263;-90
2023/04/06 10:27:45;;;;;;;1.10;1.00;;;7.40;99.90;;;;;;5003500;28;20216;-89
2023/04/06 10:30:18;;;;;;;0.80;0.80;;;7.20;99.90;;;;;;4996420;28;20206;-89
2023/04/06 10:32:52;;;;;;;1.07;0.97;;;7.10;99.90;;;;;;4996360;28;20210;-89
2023/04/06 10:35:26;;;;;;;1.10;1.00;;;7.10;99.90;;;;;;4995438;28;20264;-90
2023/04/06 10:38:04;;;;;;;1.37;1.00;;;7.30;99.90;;;;;;4994886;28;20686;-89
2023/04/06 10:40:39;;;;;;;1.67;1.10;;;7.30;99.90;;;;;;4991999;28;20578;-90
2023/04/06 10:43:11;;;;;;;1.13;1.03;;;7.20;99.90;;;;;;4975756;28;20282;-89
2023/04/06 10:45:43;;;;;;;1.43;0.87;;;7.10;99.90;;;;;;4976419;28;20584;-89
2023/04/06 10:48:20;;;;;;;1.10;0.90;;;7.10;99.90;;;;;;4976475;28;20219;-89
2023/04/06 10:50:54;;;;;;;0.97;0.90;;;7.10;99.90;;;;;;4993639;28;20221;-89
2023/04/06 10:53:27;;;;;;;1.20;1.10;;;7.10;99.90;;;;;;4995883;28;20257;-89
2023/04/06 10:55:59;;;;;;;1.00;0.90;;;7.10;99.90;;;;;;4995763;28;20210;-89
2023/04/06 10:58:31;;;;;;;1.07;0.93;;;7.20;99.90;;;;;;4995233;28;20305;-89
2023/04/06 11:01:04;;;;;;;1.10;1.00;;;7.20;99.90;;;;;;4977560;28;20222;-89
2023/04/06 11:03:47;;;;;;;4.40;1.17;;;7.10;99.90;;;;;;4991921;28;20203;-90
2023/04/06 11:06:25;;;;;;;2.97;1.07;;;7.10;99.90;;;;;;5003611;28;20242;-89
2023/04/06 11:08:57;;;;;;;2.30;1.00;;;7.10;99.90;;;;;;5004188;28;20698;-88
2023/04/06 11:11:29;;;;;;;2.13;1.10;;;7.10;99.90;;;;;;4992971;28;20278;-89
2023/04/06 11:14:02;;;;;;;2.20;1.33;;;7.10;99.90;;;;;;4995972;28;20222;-89
2023/04/06 11:16:35;;;;;;;2.93;1.23;;;7.10;99.90;;;;;;4983135;28;20211;-89
2023/04/06 11:19:12;;;;;;;1.87;1.03;;;7.10;99.90;;;;;;4979068;28;20240;-88
2023/04/06 11:21:47;;;;;;;0.80;0.80;;;7.00;99.90;;;;;;4981492;28;20238;-90
2023/04/06 11:24:21;;;;;;;0.87;0.87;;;7.00;99.90;;;;;;4978466;28;20214;-90
2023/04/06 11:26:55;;;;;;;1.83;0.90;;;7.00;99.90;;;;;;4978512;28;20207;-89
2023/04/06 11:29:29;;;;;;;1.20;0.90;;;6.80;99.90;;;;;;4975833;28;20234;-89
2023/04/06 11:32:02;;;;;;;2.13;1.00;;;6.80;99.90;;;;;;4976553;28;20210;-89
2023/04/06 11:34:39;;;;;;;1.47;0.93;;;6.80;99.90;;;;;;4976155;28;20222;-89
2023/04/06 11:37:12;;;;;;;1.17;1.00;;;6.80;99.90;;;;;;4975852;28;20344;-89
2023/04/06 11:39:49;;;;;;;1.23;0.97;;;6.80;99.90;;;;;;4975564;28;20270;-90
2023/04/06 11:42:27;;;;;;;2.87;1.20;;;6.90;99.90;;;;;;4976212;28;20667;-89
2023/04/06 11:45:00;;;;;;;1.57;0.97;;;6.90;99.90;;;;;;5004860;28;20201;-89
2023/04/06 11:47:33;;;;;;;2.00;1.00;;;6.90;99.90;;;;;;5014162;28;20209;-90
2023/04/06 11:50:15;;;;;;;2.73;1.53;;;7.00;99.90;;;;;;4979577;28;20231;-90
2023/04/06 11:52:46;;;;;;;3.27;1.30;;;7.00;99.90;;;;;;4989648;28;20199;-90
2023/04/06 11:55:20;;;;;;;1.93;1.23;;;6.90;99.90;;;;;;4997566;28;20199;-88
2023/04/06 11:57:52;;;;;;;1.43;1.33;;;6.80;99.90;;;;;;5011549;28;20198;-89
2023/04/06 12:00:24;;;;;;;1.20;1.03;;;6.70;99.90;;;;;;5003601;28;20241;-89
2023/04/06 12:02:55;;;;;;;1.17;1.00;;;6.80;99.90;;;;;;4996634;28;20615;-88
2023/04/06 12:05:30;;;;;;;2.07;1.20;;;6.80;99.90;;;;;;5013354;28;20203;-89
2023/04/06 12:08:01;;;;;;;1.97;1.30;;;6.70;99.90;;;;;;5002265;28;20585;-87
2023/04/06 12:10:33;;;;;;;2.23;1.10;;;6.70;99.90;;;;;;4997828;28;20248;-88
2023/04/06 12:13:05;;;;;;;1.37;1.23;;;6.80;99.90;;;;;;4998491;28;20210;-88
2023/04/06 12:15:37;;;;;;;1.23;1.10;;;6.80;99.90;;;;;;5000346;28;20213;-87
2023/04/06 12:18:09;;;;;;;2.20;1.50;;;6.70;99.90;;;;;;5017065;28;20235;-89
2023/04/06 12:20:43;;;;;;;1.97;1.23;;;6.70;99.90;;;;;;5017686;28;20234;-88
2023/04/06 12:23:14;;;;;;;1.67;1.20;;;6.70;99.90;;;;;;5009823;28;20214;-89
2023/04/06 12:25:46;;;;;;;1.63;1.10;;;6.70;99.90;;;;;;5007091;28;20643;-88
2023/04/06 12:28:20;;;;;;;2.10;1.30;;;6.70;99.90;;;;;;5022221;28;20242;-89
2023/04/06 12:30:53;;;;;;;2.10;1.20;;;6.70;99.90;;;;;;5003381;28;20206;-89
2023/04/06 12:33:25;;;;;;;1.67;1.33;;;6.70;99.90;;;;;;4993131;28;20211;-89
2023/04/06 12:35:59;;;;;;;1.93;1.37;;;6.70;99.90;;;;;;4989212;28;20618;-90
2023/04/06 12:38:31;;;;;;;1.50;1.20;;;6.70;99.90;;;;;;4997913;28;20215;-88
2023/04/06 12:41:03;;;;;;;2.30;1.13;;;6.70;99.90;;;;;;4997072;28;20242;-89
2023/04/06 12:43:34;;;;;;;1.90;1.20;;;6.70;99.90;;;;;;4998387;28;20342;-88
2023/04/06 12:46:06;;;;;;;1.93;1.00;;;6.70;99.90;;;;;;4997090;28;20237;-90
2023/04/06 12:48:38;;;;;;;1.53;1.20;;;6.70;99.90;;;;;;4998325;28;20272;-90
2023/04/06 12:51:12;;;;;;;1.60;1.17;;;6.70;99.90;;;;;;4998310;28;20289;-89
2023/04/06 12:53:43;;;;;;;2.83;1.40;;;6.70;99.90;;;;;;4998441;28;20237;-89
2023/04/06 12:56:16;;;;;;;1.10;1.10;;;6.70;99.90;;;;;;4981021;28;20573;-89
2023/04/06 12:58:48;;;;;;;1.20;0.90;;;6.70;99.90;;;;;;4977767;28;20211;-90
2023/04/06 13:01:19;;;;;;;1.40;1.20;;;6.70;99.90;;;;;;4984932;28;20294;-89
2023/04/06 13:03:51;;;;;;;1.07;0.90;;;6.70;99.90;;;;;;4989930;28;20207;-88
2023/04/06 13:06:27;;;;;;;2.23;1.10;;;6.70;99.90;;;;;;4999015;28;20253;-89
2023/04/06 13:08:58;;;;;;;1.73;1.10;;;6.70;99.90;;;;;;5011023;28;20270;-88
2023/04/06 13:11:29;;;;;;;1.40;1.13;;;6.70;99.90;;;;;;4993281;28;20668;-88
2023/04/06 13:14:01;;;;;;;1.50;0.93;;;6.70;99.90;;;;;;4992031;28;20218;-88
2023/04/06 13:16:32;;;;;;;1.07;1.00;;;6.70;99.90;;;;;;4995788;28;20202;-89
2023/04/06 13:19:04;;;;;;;1.00;0.83;;;6.70;99.90;;;;;;4976724;28;20277;-89
2023/04/06 13:21:38;;;;;;;1.03;0.90;;;6.70;99.90;;;;;;4976587;28;20234;-89
2023/04/06 13:24:09;;;;;;;1.10;0.90;;;6.70;99.90;;;;;;4979298;28;20218;-88